UCT Elwood — V7HW9 — position and weather

sailwx.info

Track history (hours):
 
Tides and Currents Weather Stations Pressure Air Temp Water Temp Dewpoint Dewpoint Depression Visibility Wind Speed Wind Dir Waves Ship Positions

UCT Elwood

Last reported at 2015-Jun-08 13:20 UTC. Time now 2015-Jul-04 11:52 UTC.
Position N 01°55' E 102°19'.
Warning: this ship's position is 25 days out of date.

Type: Ship (hazmat cat B). MMSI: 538002324.

Date/timePositionNaut miles runAvg speedWind from/ knotsBaromVisibWave heightAir tempDewpointWater temp
2015-Jun-08 13:20N 01°55' E 102°19'1113.6
2015-Jun-08 12:33N 01°50' E 102°29'1614.0
2015-Jun-08 11:26N 01°43' E 102°43'6212.6
2015-Jun-08 06:33N 01°12' E 103°36'1111.0
2015-Jun-08 05:33N 01°10' E 103°47'1110.7
2015-Jun-08 04:33N 01°14' E 103°57'6 3.9
2015-Jun-08 03:08N 01°17' E 104°01'0 0.0
2015-Jun-08 02:32N 01°17' E 104°01'0 0.0
2015-Jun-08 01:26N 01°17' E 104°01'0 0.0
2015-Jun-08 00:32N 01°17' E 104°01'0 0.0
2015-Jun-07 23:29N 01°17' E 104°01'0 0.0
2015-Jun-07 22:29N 01°17' E 104°01'0 0.0
2015-Jun-07 21:08N 01°17' E 104°01'0 0.0
2015-Jun-07 20:20N 01°17' E 104°01'0 0.0
2015-Jun-07 19:23N 01°17' E 104°01'0 0.3
2015-Jun-07 18:26N 01°17' E 104°01'0 0.0
2015-Jun-07 17:32N 01°17' E 104°01'0 0.0
2015-Jun-07 16:08N 01°17' E 104°01'0 0.0
2015-Jun-07 15:32N 01°17' E 104°01'0 0.0
2015-Jun-07 13:33N 01°17' E 104°01'3 3.5
2015-Jun-07 12:33N 01°16' E 103°58'5 4.7
2015-Jun-07 11:33N 01°16' E 104°03'10 9.6
2015-Jun-07 10:29N 01°18' E 104°13'  
Track history (hours):
 
Tides and Currents Weather Stations Pressure Air Temp Water Temp Dewpoint Dewpoint Depression Visibility Wind Speed Wind Dir Waves Ship Positions

UCT Elwood

Last reported at 2015-Jun-08 13:20 UTC. Time now 2015-Jul-04 11:52 UTC.
Position N 01°55' E 102°19'.
Warning: this ship's position is 25 days out of date.

Type: Ship (hazmat cat B). MMSI: 538002324.

Date/timePositionNaut miles runAvg speedWind from/ knotsBaromVisibWave heightAir tempDewpointWater temp
2015-Jun-08 13:20N 01°55' E 102°19'1113.6
2015-Jun-08 12:33N 01°50' E 102°29'1614.0
2015-Jun-08 11:26N 01°43' E 102°43'6212.6
2015-Jun-08 06:33N 01°12' E 103°36'1111.0
2015-Jun-08 05:33N 01°10' E 103°47'1110.7
2015-Jun-08 04:33N 01°14' E 103°57'6 3.9
2015-Jun-08 03:08N 01°17' E 104°01'0 0.0
2015-Jun-08 02:32N 01°17' E 104°01'0 0.0
2015-Jun-08 01:26N 01°17' E 104°01'0 0.0
2015-Jun-08 00:32N 01°17' E 104°01'0 0.0
2015-Jun-07 23:29N 01°17' E 104°01'0 0.0
2015-Jun-07 22:29N 01°17' E 104°01'0 0.0
2015-Jun-07 21:08N 01°17' E 104°01'0 0.0
2015-Jun-07 20:20N 01°17' E 104°01'0 0.0
2015-Jun-07 19:23N 01°17' E 104°01'0 0.3
2015-Jun-07 18:26N 01°17' E 104°01'0 0.0
2015-Jun-07 17:32N 01°17' E 104°01'0 0.0
2015-Jun-07 16:08N 01°17' E 104°01'0 0.0
2015-Jun-07 15:32N 01°17' E 104°01'0 0.0
2015-Jun-07 13:33N 01°17' E 104°01'3 3.5
2015-Jun-07 12:33N 01°16' E 103°58'5 4.7
2015-Jun-07 11:33N 01°16' E 104°03'10 9.6
2015-Jun-07 10:29N 01°18' E 104°13'  

Dump ship's entire track history